createdAt,value
2019-03-19T00:00:40.912Z,18.70
2019-03-19T00:03:11.581Z,20.13
2019-03-19T00:05:42.238Z,18.93
2019-03-19T00:08:12.725Z,19.63
2019-03-19T00:10:43.199Z,20.70
2019-03-19T00:13:15.184Z,19.07
2019-03-19T00:15:53.832Z,21.43
2019-03-19T00:18:25.914Z,22.50
2019-03-19T00:20:56.395Z,21.83
2019-03-19T00:23:26.916Z,22.47
2019-03-19T00:25:57.399Z,21.20
2019-03-19T00:28:27.935Z,23.80
2019-03-19T00:30:58.370Z,24.60
2019-03-19T00:33:28.827Z,22.33
2019-03-19T00:35:59.329Z,23.57
2019-03-19T00:38:29.792Z,26.10
2019-03-19T00:41:00.683Z,25.63
2019-03-19T00:43:31.315Z,26.43
2019-03-19T00:46:01.889Z,28.93
2019-03-19T00:48:32.477Z,32.07
2019-03-19T00:51:03.048Z,32.93
2019-03-19T00:53:33.566Z,34.30
2019-03-19T00:56:04.166Z,38.60
2019-03-19T00:58:38.623Z,46.53
2019-03-19T01:01:09.153Z,46.30
2019-03-19T01:03:40.574Z,45.67
2019-03-19T01:06:11.067Z,42.90
2019-03-19T01:08:41.538Z,44.07
2019-03-19T01:11:11.999Z,47.80
2019-03-19T01:13:42.453Z,46.50
2019-03-19T01:16:14.889Z,50.13
2019-03-19T01:18:45.398Z,47.50
2019-03-19T01:21:15.843Z,48.07
2019-03-19T01:23:46.317Z,54.27
2019-03-19T01:26:16.782Z,49.27
2019-03-19T01:28:47.305Z,53.40
2019-03-19T01:31:17.779Z,53.03
2019-03-19T01:33:48.258Z,54.67
2019-03-19T01:36:18.709Z,51.27
2019-03-19T01:38:49.174Z,56.00
2019-03-19T01:41:19.613Z,50.43
2019-03-19T01:43:50.071Z,53.43
2019-03-19T01:46:20.570Z,55.97
2019-03-19T01:48:55.093Z,53.53
2019-03-19T01:51:25.799Z,55.97
2019-03-19T01:53:56.291Z,52.40
2019-03-19T01:56:26.816Z,60.67
2019-03-19T01:58:57.282Z,54.40
2019-03-19T02:01:27.909Z,52.73
2019-03-19T02:03:58.360Z,58.00
2019-03-19T02:06:28.812Z,56.17
2019-03-19T02:08:59.342Z,59.73
2019-03-19T02:11:29.815Z,66.03
2019-03-19T02:14:00.346Z,61.53
2019-03-19T02:16:30.837Z,64.37
2019-03-19T02:19:01.410Z,64.33
2019-03-19T02:21:31.829Z,67.13
2019-03-19T02:24:02.316Z,63.90
2019-03-19T02:26:32.844Z,64.37
2019-03-19T02:29:03.413Z,67.43
2019-03-19T02:34:33.093Z,65.13
2019-03-19T02:37:03.618Z,64.37
2019-03-19T02:39:34.233Z,72.80
2019-03-19T02:42:04.780Z,67.07
2019-03-19T02:44:35.325Z,72.03
2019-03-19T02:47:05.766Z,70.43
2019-03-19T02:49:36.358Z,75.00
2019-03-19T02:52:06.956Z,77.90
2019-03-19T02:54:53.394Z,82.87
2019-03-19T02:57:23.976Z,82.63
2019-03-19T02:59:55.988Z,92.27
2019-03-19T03:02:26.569Z,93.10
2019-03-19T03:04:57.232Z,90.73
2019-03-19T03:07:27.653Z,79.30
2019-03-19T03:09:58.096Z,78.17
2019-03-19T03:12:28.584Z,76.97
2019-03-19T03:14:59.138Z,80.97
2019-03-19T03:17:29.690Z,73.87
2019-03-19T03:20:00.125Z,75.30
2019-03-19T03:22:30.582Z,72.07
2019-03-19T03:25:01.056Z,70.67
2019-03-19T03:27:34.094Z,75.63
2019-03-19T03:30:08.590Z,79.43
2019-03-19T03:32:40.682Z,84.27
2019-03-19T03:35:12.697Z,78.23
2019-03-19T03:37:43.284Z,79.27
2019-03-19T03:43:06.924Z,82.53
2019-03-19T03:45:37.522Z,86.90
2019-03-19T03:48:09.554Z,86.87
2019-03-19T03:50:40.185Z,78.13
2019-03-19T03:53:16.883Z,79.37
2019-03-19T03:55:47.521Z,76.47
2019-03-19T03:58:18.029Z,82.20
2019-03-19T04:00:51.297Z,76.40
2019-03-19T04:06:32.507Z,69.27
2019-03-19T04:09:16.263Z,79.53
2019-03-19T04:11:46.832Z,77.37
2019-03-19T04:14:17.322Z,73.73
2019-03-19T04:16:47.817Z,82.47
2019-03-19T04:19:20.386Z,75.93
2019-03-19T04:24:44.677Z,85.77
2019-03-19T04:27:16.650Z,85.13
2019-03-19T04:29:47.645Z,81.33
2019-03-19T04:32:34.089Z,82.70
2019-03-19T04:35:10.246Z,74.03
2019-03-19T04:38:01.192Z,70.00
2019-03-19T04:40:31.387Z,65.03
2019-03-19T04:43:03.558Z,64.30
2019-03-19T04:45:37.199Z,65.60
2019-03-19T04:48:07.771Z,62.93
2019-03-19T04:50:38.331Z,69.40
2019-03-19T04:53:10.341Z,69.37
2019-03-19T04:55:40.795Z,67.17
2019-03-19T04:58:13.026Z,73.40
2019-03-19T05:00:45.122Z,70.67
2019-03-19T05:03:17.146Z,69.97
2019-03-19T05:05:47.566Z,72.23
2019-03-19T05:08:23.277Z,77.03
2019-03-19T05:10:55.307Z,73.10
2019-03-19T05:13:25.782Z,75.13
2019-03-19T05:16:00.521Z,72.30
2019-03-19T05:21:23.500Z,77.23
2019-03-19T05:23:53.952Z,70.53
2019-03-19T05:26:26.073Z,73.37
2019-03-19T05:28:58.164Z,74.80
2019-03-19T05:31:28.732Z,77.83
2019-03-19T05:34:03.733Z,72.90
2019-03-19T05:36:34.302Z,78.90
2019-03-19T05:39:09.847Z,74.10
2019-03-19T05:41:42.610Z,67.03
2019-03-19T05:44:16.481Z,68.87
2019-03-19T05:46:51.299Z,63.60
2019-03-19T05:49:29.151Z,61.33
2019-03-19T05:51:59.632Z,64.60
2019-03-19T05:54:32.756Z,56.67
2019-03-19T05:57:06.176Z,58.67
2019-03-19T05:59:41.074Z,56.77
2019-03-19T06:02:11.595Z,56.50
2019-03-19T06:04:43.751Z,52.83
2019-03-19T06:07:15.906Z,51.60
2019-03-19T06:09:49.047Z,48.13
2019-03-19T06:12:21.315Z,48.27
2019-03-19T06:14:52.006Z,53.57
2019-03-19T06:17:23.662Z,43.47
2019-03-19T06:19:56.565Z,43.27
2019-03-19T06:22:28.694Z,40.77
2019-03-19T06:25:04.212Z,47.17
2019-03-19T06:27:34.834Z,36.57
2019-03-19T06:33:12.009Z,37.73
2019-03-19T06:35:44.031Z,39.77
2019-03-19T06:38:17.391Z,35.40
2019-03-19T06:40:48.962Z,34.13
2019-03-19T06:43:23.005Z,36.27
2019-03-19T06:46:08.618Z,33.77
2019-03-19T06:48:41.930Z,32.57
2019-03-19T06:51:20.551Z,33.00
2019-03-19T06:53:51.284Z,38.20
2019-03-19T06:59:15.832Z,35.20
2019-03-19T07:01:50.460Z,39.67
2019-03-19T07:04:20.976Z,36.80
2019-03-19T07:06:52.822Z,32.13
2019-03-19T07:09:28.917Z,32.13
2019-03-19T07:12:01.679Z,25.47
2019-03-19T07:14:34.055Z,27.77
2019-03-19T07:17:05.103Z,24.77
2019-03-19T07:19:53.378Z,28.40
2019-03-19T07:22:30.806Z,20.00
2019-03-19T07:25:03.171Z,18.30
2019-03-19T07:27:35.885Z,22.17
2019-03-19T07:30:23.353Z,16.77
2019-03-19T07:32:56.261Z,17.53
2019-03-19T07:35:26.821Z,15.13
2019-03-19T07:37:58.967Z,16.57
2019-03-19T07:40:34.513Z,18.33
2019-03-19T07:43:05.095Z,19.23
2019-03-19T07:45:35.624Z,17.13
2019-03-19T07:48:06.128Z,20.77
2019-03-19T07:50:37.766Z,24.57
2019-03-19T07:53:08.377Z,20.17
2019-03-19T07:55:40.356Z,15.00
2019-03-19T07:58:15.322Z,17.20
2019-03-19T08:00:45.951Z,19.73
2019-03-19T08:03:17.989Z,20.73
2019-03-19T08:05:57.508Z,24.97
2019-03-19T08:08:28.157Z,16.43
2019-03-19T08:10:58.983Z,27.33
2019-03-19T08:13:30.440Z,20.03
2019-03-19T08:16:02.727Z,33.40
2019-03-19T08:18:36.249Z,18.83
2019-03-19T08:21:06.944Z,21.73
2019-03-19T08:23:40.081Z,15.40
2019-03-19T08:26:13.790Z,17.60
2019-03-19T08:28:55.032Z,20.03
2019-03-19T08:31:18.914Z,17.13
2019-03-19T08:33:49.448Z,24.90
2019-03-19T08:36:19.834Z,17.60
2019-03-19T08:38:50.292Z,19.93
2019-03-19T08:41:37.104Z,21.80
2019-03-19T08:44:07.792Z,13.47
2019-03-19T08:46:38.290Z,14.17
2019-03-19T08:49:08.893Z,28.30
2019-03-19T08:51:39.333Z,23.50
2019-03-19T08:54:11.169Z,20.53
2019-03-19T08:56:44.577Z,14.47
2019-03-19T08:59:17.443Z,14.50
2019-03-19T09:01:48.031Z,16.40
2019-03-19T09:04:18.632Z,18.97
2019-03-19T09:06:49.161Z,17.00
2019-03-19T09:09:21.390Z,14.87
2019-03-19T09:11:53.472Z,16.13
2019-03-19T09:14:28.561Z,14.40
2019-03-19T09:17:02.949Z,18.37
2019-03-19T09:19:34.361Z,12.33
2019-03-19T09:22:06.487Z,14.47
2019-03-19T09:24:45.310Z,12.43
2019-03-19T09:27:16.012Z,17.70
2019-03-19T09:29:48.303Z,18.87
2019-03-19T09:32:20.335Z,16.87
2019-03-19T09:34:52.214Z,16.77
2019-03-19T09:37:22.868Z,12.17
2019-03-19T09:39:53.297Z,19.63
2019-03-19T09:42:23.983Z,16.70
2019-03-19T09:44:58.479Z,14.47
2019-03-19T09:47:26.891Z,12.37
2019-03-19T09:49:58.836Z,17.83
2019-03-19T09:52:32.425Z,12.40
2019-03-19T09:55:05.856Z,14.43
2019-03-19T09:57:36.396Z,13.90
2019-03-19T10:00:18.500Z,19.63
2019-03-19T10:02:49.961Z,15.37
2019-03-19T10:05:22.160Z,11.13
2019-03-19T10:07:52.787Z,15.87
2019-03-19T10:10:27.145Z,13.43
2019-03-19T10:12:59.393Z,17.33
2019-03-19T10:15:30.691Z,12.83
2019-03-19T10:21:02.291Z,10.33
2019-03-19T10:23:34.162Z,14.47
2019-03-19T10:26:06.839Z,11.57
2019-03-19T10:28:42.676Z,15.77
2019-03-19T10:31:19.274Z,12.00
2019-03-19T10:33:47.103Z,10.27
2019-03-19T10:36:26.730Z,13.17
2019-03-19T10:38:57.363Z,11.83
2019-03-19T10:41:29.896Z,12.83
2019-03-19T10:44:01.792Z,10.90
2019-03-19T10:46:33.292Z,10.47
2019-03-19T10:49:04.166Z,9.83
2019-03-19T10:51:35.269Z,10.93
2019-03-19T10:54:08.935Z,10.07
2019-03-19T10:56:40.193Z,11.13
2019-03-19T10:59:12.139Z,9.70
2019-03-19T11:01:45.376Z,13.33
2019-03-19T11:04:16.691Z,10.10
2019-03-19T11:06:48.760Z,8.70
2019-03-19T11:09:19.467Z,12.87
2019-03-19T11:11:50.324Z,10.00
2019-03-19T11:14:24.788Z,11.17
2019-03-19T11:16:56.959Z,13.47
2019-03-19T11:19:29.189Z,9.97
2019-03-19T11:22:01.567Z,8.77
2019-03-19T11:24:32.287Z,8.40
2019-03-19T11:27:14.166Z,8.10
2019-03-19T11:29:46.149Z,8.07
2019-03-19T11:32:18.219Z,17.93
2019-03-19T11:34:51.743Z,10.57
2019-03-19T11:37:26.818Z,7.20
2019-03-19T11:39:59.061Z,7.13
2019-03-19T11:42:31.493Z,9.07
2019-03-19T11:45:02.198Z,12.27
2019-03-19T11:47:32.825Z,12.10
2019-03-19T11:50:11.343Z,9.40
2019-03-19T11:52:43.545Z,11.77
2019-03-19T11:55:15.125Z,15.53
2019-03-19T11:57:46.314Z,12.10
2019-03-19T12:00:21.275Z,11.57
2019-03-19T12:03:10.867Z,12.40
2019-03-19T12:05:35.506Z,11.53
2019-03-19T12:08:08.352Z,12.57
2019-03-19T12:10:38.979Z,8.20
2019-03-19T12:13:14.710Z,9.40
2019-03-19T12:15:45.359Z,10.00
2019-03-19T12:18:16.184Z,14.13
2019-03-19T12:20:51.044Z,13.17
2019-03-19T12:23:36.185Z,12.80
2019-03-19T12:29:23.122Z,12.27
2019-03-19T12:32:05.487Z,29.40
2019-03-19T12:38:05.830Z,11.30
2019-03-19T12:40:37.602Z,8.97
2019-03-19T12:43:08.211Z,9.13
2019-03-19T12:45:38.712Z,11.27
2019-03-19T12:48:09.223Z,9.53
2019-03-19T12:53:33.370Z,10.73
2019-03-19T12:56:03.822Z,13.67
2019-03-19T12:58:34.242Z,18.60
2019-03-19T13:01:04.894Z,10.13
2019-03-19T13:03:37.329Z,16.90
2019-03-19T13:06:07.957Z,12.77
2019-03-19T13:08:41.514Z,13.53
2019-03-19T13:11:12.150Z,13.33
2019-03-19T13:13:42.780Z,13.23
2019-03-19T13:16:14.962Z,14.03
2019-03-19T13:18:45.709Z,12.73
2019-03-19T13:21:24.036Z,12.57
2019-03-19T13:23:59.396Z,12.77
2019-03-19T13:26:29.967Z,15.23
2019-03-19T13:29:00.521Z,11.70
2019-03-19T13:31:33.919Z,16.57
2019-03-19T13:34:04.448Z,18.27
2019-03-19T13:36:34.962Z,15.17
2019-03-19T13:39:07.278Z,21.40
2019-03-19T13:41:37.805Z,19.70
2019-03-19T13:44:08.323Z,16.80
2019-03-19T13:46:41.889Z,16.97
2019-03-19T13:49:15.360Z,23.40
2019-03-19T13:52:04.053Z,22.93
2019-03-19T13:54:34.769Z,19.00
2019-03-19T13:57:05.215Z,10.90
2019-03-19T13:59:36.223Z,14.47
2019-03-19T14:02:06.913Z,18.53
2019-03-19T14:04:38.946Z,12.10
2019-03-19T14:07:19.712Z,17.43
2019-03-19T14:15:27.949Z,12.37
2019-03-19T14:18:01.595Z,14.03
2019-03-19T14:20:33.455Z,16.93
2019-03-19T14:23:04.856Z,17.07
2019-03-19T14:25:35.448Z,17.67
2019-03-19T14:28:05.951Z,17.90
2019-03-19T14:30:36.378Z,15.23
2019-03-19T14:33:16.571Z,16.67
2019-03-19T14:35:47.064Z,12.97
2019-03-19T14:38:35.387Z,19.27
2019-03-19T14:41:13.515Z,20.50
2019-03-19T14:43:49.404Z,21.30
2019-03-19T14:46:20.160Z,16.77
2019-03-19T14:48:50.889Z,19.87
2019-03-19T14:51:22.666Z,18.93
2019-03-19T14:53:53.205Z,15.77
2019-03-19T14:56:24.096Z,18.63
2019-03-19T14:58:57.243Z,16.60
2019-03-19T15:01:27.961Z,21.47
2019-03-19T15:07:22.498Z,25.57
2019-03-19T15:09:54.132Z,24.73
2019-03-19T15:12:25.649Z,23.00
2019-03-19T15:14:58.065Z,25.63
2019-03-19T15:17:28.662Z,29.00
2019-03-19T15:20:05.935Z,32.73
2019-03-19T15:26:13.500Z,28.90
2019-03-19T15:29:02.162Z,26.60
2019-03-19T15:31:32.545Z,23.50
2019-03-19T15:34:12.706Z,33.27
2019-03-19T15:36:43.625Z,34.43
2019-03-19T15:39:14.372Z,31.63
2019-03-19T15:41:44.974Z,30.43
2019-03-19T15:44:19.739Z,32.30
2019-03-19T15:46:51.915Z,34.73
2019-03-19T15:49:38.462Z,30.60
2019-03-19T15:52:02.552Z,48.93
2019-03-19T15:54:33.011Z,32.97
2019-03-19T15:57:03.454Z,36.63
2019-03-19T15:59:35.910Z,31.20
2019-03-19T16:02:07.950Z,37.17
2019-03-19T16:04:44.143Z,31.87
2019-03-19T16:07:14.710Z,42.03
2019-03-19T16:09:46.752Z,43.93
2019-03-19T16:12:17.318Z,40.57
2019-03-19T16:14:57.294Z,47.23
2019-03-19T16:17:30.264Z,33.97
2019-03-19T16:20:00.884Z,58.97
2019-03-19T16:22:37.079Z,48.33
2019-03-19T16:25:10.129Z,41.77
2019-03-19T16:27:40.615Z,51.63
2019-03-19T16:33:08.236Z,43.50
2019-03-19T16:38:43.676Z,43.60
2019-03-19T16:41:14.287Z,58.87
2019-03-19T16:44:01.395Z,54.53
2019-03-19T16:49:28.577Z,45.43
2019-03-19T16:49:58.028Z,36.67
2019-03-19T16:52:57.146Z,41.83
2019-03-19T16:58:43.639Z,48.17
2019-03-19T17:04:12.493Z,44.87
2019-03-19T17:06:46.311Z,38.63
2019-03-19T17:09:19.805Z,48.20
2019-03-19T17:12:10.470Z,50.33
2019-03-19T17:14:53.106Z,47.00
2019-03-19T17:17:23.081Z,55.70
2019-03-19T17:19:58.612Z,47.93
2019-03-19T17:23:04.300Z,49.00
2019-03-19T17:25:36.188Z,52.07
2019-03-19T17:28:22.092Z,53.63
2019-03-19T17:30:55.637Z,59.87
2019-03-19T17:33:37.888Z,61.20
2019-03-19T17:36:24.399Z,66.33
2019-03-19T17:38:57.324Z,69.93
2019-03-19T17:41:28.028Z,80.60
2019-03-19T17:46:49.854Z,71.03
2019-03-19T17:49:20.610Z,78.37
2019-03-19T17:51:51.137Z,87.00
2019-03-19T17:54:23.038Z,86.60
2019-03-19T17:56:59.477Z,79.47
2019-03-19T17:59:46.819Z,83.20
2019-03-19T18:02:25.201Z,90.70
2019-03-19T18:05:01.659Z,88.97
2019-03-19T18:07:34.129Z,83.10
2019-03-19T18:10:13.672Z,93.03
2019-03-19T18:12:44.490Z,64.30
2019-03-19T18:15:16.476Z,63.57
2019-03-19T18:17:51.402Z,62.20
2019-03-19T18:20:26.459Z,75.13
2019-03-19T18:23:06.258Z,60.47
2019-03-19T18:25:39.031Z,52.10
2019-03-19T18:28:18.243Z,51.87
2019-03-19T18:30:51.081Z,54.13
2019-03-19T18:33:29.296Z,51.17
2019-03-19T18:35:59.868Z,45.37
2019-03-19T18:38:31.999Z,64.27
2019-03-19T18:41:02.518Z,43.30
2019-03-19T18:43:40.915Z,46.73
2019-03-19T18:46:11.435Z,54.27
2019-03-19T18:48:42.092Z,43.40
2019-03-19T18:51:12.685Z,57.57
2019-03-19T18:53:43.284Z,39.23
2019-03-19T18:56:13.776Z,35.17
2019-03-19T18:58:52.629Z,36.83
2019-03-19T19:01:24.087Z,28.70
2019-03-19T19:03:54.587Z,33.73
2019-03-19T19:06:25.216Z,31.57
2019-03-19T19:08:59.592Z,35.03
2019-03-19T19:11:32.718Z,33.90
2019-03-19T19:14:03.358Z,37.73
2019-03-19T19:16:33.799Z,48.40
2019-03-19T19:19:04.517Z,30.17
2019-03-19T19:21:35.143Z,39.83
2019-03-19T19:24:08.856Z,37.13
2019-03-19T19:26:39.384Z,36.40
2019-03-19T19:29:09.978Z,34.13
2019-03-19T19:31:42.491Z,37.70
2019-03-19T19:34:12.683Z,39.73
2019-03-19T19:36:45.163Z,42.23
2019-03-19T19:39:17.470Z,49.80
2019-03-19T19:41:47.971Z,45.57
2019-03-19T19:44:18.523Z,44.73
2019-03-19T19:46:49.037Z,41.60
2019-03-19T19:49:21.528Z,45.33
2019-03-19T19:52:00.530Z,51.00
2019-03-19T19:54:31.106Z,38.37
2019-03-19T19:57:01.636Z,45.93
2019-03-19T19:59:33.141Z,42.47
2019-03-19T20:02:03.622Z,45.37
2019-03-19T20:04:42.189Z,46.07
2019-03-19T20:07:14.234Z,41.83
2019-03-19T20:09:44.674Z,44.20
2019-03-19T20:12:15.174Z,39.40
2019-03-19T20:14:45.634Z,41.27
2019-03-19T20:17:16.034Z,40.80
2019-03-19T20:19:46.446Z,41.10
2019-03-19T20:22:17.040Z,37.73
2019-03-19T20:24:47.408Z,37.80
2019-03-19T20:27:17.900Z,38.87
2019-03-19T20:29:48.368Z,36.20
2019-03-19T20:32:18.827Z,39.40
2019-03-19T20:34:49.249Z,35.83
2019-03-19T20:37:19.706Z,38.83
2019-03-19T20:39:50.281Z,36.87
2019-03-19T20:42:20.720Z,33.27
2019-03-19T20:44:51.157Z,29.70
2019-03-19T20:47:21.556Z,32.70
2019-03-19T20:49:52.142Z,34.27
2019-03-19T20:52:22.671Z,33.83
2019-03-19T20:54:53.103Z,36.07
2019-03-19T20:57:26.784Z,35.07
2019-03-19T20:59:57.210Z,36.00
2019-03-19T21:02:27.621Z,37.87
2019-03-19T21:04:58.139Z,37.70
2019-03-19T21:07:28.586Z,35.67
2019-03-19T21:09:59.065Z,35.77
2019-03-19T21:12:29.832Z,41.53
2019-03-19T21:15:00.449Z,40.77
2019-03-19T21:17:30.944Z,42.07
2019-03-19T21:20:01.461Z,44.30
2019-03-19T21:22:31.957Z,41.83
2019-03-19T21:25:02.424Z,44.57
2019-03-19T21:27:32.895Z,41.60
2019-03-19T21:30:03.567Z,42.70
2019-03-19T21:32:34.062Z,43.40
2019-03-19T21:35:05.839Z,47.20
2019-03-19T21:37:36.603Z,40.07
2019-03-19T21:40:14.358Z,40.40
2019-03-19T21:42:44.958Z,35.90
2019-03-19T21:45:23.154Z,46.30
2019-03-19T21:47:53.604Z,34.43
2019-03-19T21:50:24.739Z,39.53
2019-03-19T21:52:55.134Z,37.20
2019-03-19T21:55:25.559Z,36.97
2019-03-19T21:57:55.952Z,40.23
2019-03-19T22:00:29.059Z,39.43
2019-03-19T22:02:59.469Z,34.43
2019-03-19T22:05:29.944Z,37.23
2019-03-19T22:08:00.361Z,38.17
2019-03-19T22:10:30.849Z,36.93
2019-03-19T22:13:01.290Z,30.40
2019-03-19T22:15:31.700Z,35.03
2019-03-19T22:18:03.639Z,31.13
2019-03-19T22:20:34.116Z,32.33
2019-03-19T22:23:05.538Z,31.90
2019-03-19T22:25:35.941Z,27.73
2019-03-19T22:28:06.343Z,33.03
2019-03-19T22:30:37.334Z,30.33
2019-03-19T22:33:07.767Z,29.07
2019-03-19T22:35:38.158Z,29.17
2019-03-19T22:38:08.998Z,33.00
2019-03-19T22:40:39.467Z,35.70
2019-03-19T22:43:09.916Z,33.33
2019-03-19T22:45:40.350Z,32.03
2019-03-19T22:48:10.710Z,37.83
2019-03-19T22:50:41.198Z,37.33
2019-03-19T22:53:11.706Z,37.57
2019-03-19T22:55:42.147Z,40.80
2019-03-19T22:58:12.551Z,39.30
2019-03-19T23:00:44.770Z,47.30
2019-03-19T23:03:15.341Z,49.33
2019-03-19T23:05:45.843Z,46.83
2019-03-19T23:08:16.291Z,51.80
2019-03-19T23:10:47.250Z,59.77
2019-03-19T23:13:19.192Z,89.13
2019-03-19T23:15:49.635Z,118.33
2019-03-19T23:18:20.116Z,123.23
2019-03-19T23:20:50.559Z,137.07
2019-03-19T23:23:20.993Z,135.30
2019-03-19T23:25:51.417Z,137.93
2019-03-19T23:28:24.231Z,149.00
2019-03-19T23:30:56.186Z,126.80
2019-03-19T23:33:26.582Z,106.63
2019-03-19T23:35:57.063Z,92.07
2019-03-19T23:38:28.283Z,78.53
2019-03-19T23:40:58.758Z,63.60
2019-03-19T23:43:29.160Z,57.97
2019-03-19T23:45:59.553Z,61.30
2019-03-19T23:48:32.202Z,52.57
2019-03-19T23:51:02.643Z,46.90
2019-03-19T23:53:33.071Z,54.60
2019-03-19T23:56:03.498Z,65.13
2019-03-19T23:58:33.948Z,71.03
